sensor_id;sensor_type;location;lat;lon;timestamp;pressure;altitude;pressure_sealevel;temperature;humidity
9855;BME280;4966;48.112;9.282;2022-10-24T00:01:49;94626.41;;;14.20;100.00
9855;BME280;4966;48.112;9.282;2022-10-24T00:04:15;94623.63;;;14.39;100.00
9855;BME280;4966;48.112;9.282;2022-10-24T00:06:40;94623.56;;;14.36;99.84
9855;BME280;4966;48.112;9.282;2022-10-24T00:09:06;94617.66;;;14.34;100.00
9855;BME280;4966;48.112;9.282;2022-10-24T00:11:33;94610.16;;;14.31;100.00
9855;BME280;4966;48.112;9.282;2022-10-24T00:13:58;94609.69;;;14.48;99.74
9855;BME280;4966;48.112;9.282;2022-10-24T00:16:25;94615.78;;;14.38;99.61
9855;BME280;4966;48.112;9.282;2022-10-24T00:18:51;94616.06;;;14.33;100.00
9855;BME280;4966;48.112;9.282;2022-10-24T00:21:17;94620.75;;;14.32;100.00
9855;BME280;4966;48.112;9.282;2022-10-24T00:23:42;94621.25;;;14.38;100.00
9855;BME280;4966;48.112;9.282;2022-10-24T00:26:07;94621.06;;;14.50;100.00
9855;BME280;4966;48.112;9.282;2022-10-24T00:28:35;94610.72;;;14.59;99.38
9855;BME280;4966;48.112;9.282;2022-10-24T00:31:02;94611.78;;;14.55;99.75
9855;BME280;4966;48.112;9.282;2022-10-24T00:33:27;94609.25;;;14.46;99.74
9855;BME280;4966;48.112;9.282;2022-10-24T00:35:53;94614.34;;;14.44;99.88
9855;BME280;4966;48.112;9.282;2022-10-24T00:38:18;94611.59;;;14.44;99.71
9855;BME280;4966;48.112;9.282;2022-10-24T00:40:44;94616.69;;;14.45;100.00
9855;BME280;4966;48.112;9.282;2022-10-24T00:43:18;94606.25;;;14.51;99.72
9855;BME280;4966;48.112;9.282;2022-10-24T00:45:51;94624.19;;;14.49;99.80
9855;BME280;4966;48.112;9.282;2022-10-24T00:48:22;94636.00;;;14.33;100.00
9855;BME280;4966;48.112;9.282;2022-10-24T00:50:52;94647.13;;;14.21;100.00
9855;BME280;4966;48.112;9.282;2022-10-24T00:53:19;94637.19;;;14.32;100.00
9855;BME280;4966;48.112;9.282;2022-10-24T00:55:47;94639.50;;;14.53;99.33
9855;BME280;4966;48.112;9.282;2022-10-24T00:58:14;94635.84;;;14.45;98.72
9855;BME280;4966;48.112;9.282;2022-10-24T01:00:40;94625.28;;;14.44;98.57
9855;BME280;4966;48.112;9.282;2022-10-24T01:03:06;94635.06;;;14.45;98.83
9855;BME280;4966;48.112;9.282;2022-10-24T01:05:39;94642.28;;;14.34;98.97
9855;BME280;4966;48.112;9.282;2022-10-24T01:08:29;94655.16;;;14.33;98.93
9855;BME280;4966;48.112;9.282;2022-10-24T01:16:34;94649.78;;;14.37;98.69
9855;BME280;4966;48.112;9.282;2022-10-24T01:22:00;94638.84;;;14.17;99.45
9855;BME280;4966;48.112;9.282;2022-10-24T01:32:32;94616.59;;;14.19;99.69
9855;BME280;4966;48.112;9.282;2022-10-24T01:38:15;94635.63;;;14.12;99.25
9855;BME280;4966;48.112;9.282;2022-10-24T01:40:59;94629.16;;;14.20;98.72
9855;BME280;4966;48.112;9.282;2022-10-24T01:43:30;94620.91;;;14.39;97.69
9855;BME280;4966;48.112;9.282;2022-10-24T01:46:02;94627.25;;;14.24;98.38
9855;BME280;4966;48.112;9.282;2022-10-24T01:48:32;94644.03;;;14.22;98.69
9855;BME280;4966;48.112;9.282;2022-10-24T01:50:59;94631.34;;;14.14;99.19
9855;BME280;4966;48.112;9.282;2022-10-24T01:53:27;94627.75;;;14.30;98.72
9855;BME280;4966;48.112;9.282;2022-10-24T01:55:54;94639.22;;;14.16;99.07
9855;BME280;4966;48.112;9.282;2022-10-24T01:58:20;94644.25;;;14.14;99.19
9855;BME280;4966;48.112;9.282;2022-10-24T02:00:47;94639.56;;;14.14;99.27
9855;BME280;4966;48.112;9.282;2022-10-24T02:03:36;94637.84;;;14.25;98.56
9855;BME280;4966;48.112;9.282;2022-10-24T02:06:24;94624.63;;;14.31;98.22
9855;BME280;4966;48.112;9.282;2022-10-24T02:09:01;94620.75;;;14.32;97.24
9855;BME280;4966;48.112;9.282;2022-10-24T02:11:30;94619.63;;;14.14;98.40
9855;BME280;4966;48.112;9.282;2022-10-24T02:13:59;94615.91;;;13.83;100.00
9855;BME280;4966;48.112;9.282;2022-10-24T02:16:27;94607.47;;;14.11;99.85
9855;BME280;4966;48.112;9.282;2022-10-24T02:18:54;94643.91;;;13.96;100.00
9855;BME280;4966;48.112;9.282;2022-10-24T02:24:01;94622.53;;;14.01;100.00
9855;BME280;4966;48.112;9.282;2022-10-24T02:27:20;94624.19;;;14.06;100.00
9855;BME280;4966;48.112;9.282;2022-10-24T02:29:24;94617.13;;;14.05;99.82
9855;BME280;4966;48.112;9.282;2022-10-24T02:31:56;94622.22;;;14.07;99.86
9855;BME280;4966;48.112;9.282;2022-10-24T02:34:24;94616.94;;;14.17;98.89
9855;BME280;4966;48.112;9.282;2022-10-24T02:36:54;94613.69;;;14.08;99.21
9855;BME280;4966;48.112;9.282;2022-10-24T02:39:21;94605.66;;;14.19;98.66
9855;BME280;4966;48.112;9.282;2022-10-24T02:41:48;94620.38;;;14.11;98.91
9855;BME280;4966;48.112;9.282;2022-10-24T02:44:17;94620.94;;;14.00;99.49
9855;BME280;4966;48.112;9.282;2022-10-24T02:46:45;94619.41;;;14.03;99.56
9855;BME280;4966;48.112;9.282;2022-10-24T02:49:11;94622.81;;;14.16;98.70
9855;BME280;4966;48.112;9.282;2022-10-24T02:51:39;94632.88;;;14.12;98.88
9855;BME280;4966;48.112;9.282;2022-10-24T02:54:05;94627.34;;;14.08;99.19
9855;BME280;4966;48.112;9.282;2022-10-24T02:56:31;94616.47;;;14.12;99.37
9855;BME280;4966;48.112;9.282;2022-10-24T02:58:56;94616.16;;;14.17;98.46
9855;BME280;4966;48.112;9.282;2022-10-24T03:01:22;94615.47;;;14.00;99.38
9855;BME280;4966;48.112;9.282;2022-10-24T03:03:48;94629.28;;;13.88;99.93
9855;BME280;4966;48.112;9.282;2022-10-24T03:06:13;94623.53;;;13.93;99.89
9855;BME280;4966;48.112;9.282;2022-10-24T03:08:38;94618.50;;;13.95;100.00
9855;BME280;4966;48.112;9.282;2022-10-24T03:11:04;94614.94;;;14.14;98.88
9855;BME280;4966;48.112;9.282;2022-10-24T03:13:29;94622.84;;;14.19;98.56
9855;BME280;4966;48.112;9.282;2022-10-24T03:15:55;94622.16;;;14.03;99.10
9855;BME280;4966;48.112;9.282;2022-10-24T03:18:20;94628.00;;;14.01;99.38
9855;BME280;4966;48.112;9.282;2022-10-24T03:20:45;94626.47;;;14.04;99.09
9855;BME280;4966;48.112;9.282;2022-10-24T03:23:11;94619.19;;;14.12;98.82
9855;BME280;4966;48.112;9.282;2022-10-24T03:25:36;94626.00;;;13.98;99.19
9855;BME280;4966;48.112;9.282;2022-10-24T03:28:02;94618.44;;;13.92;99.67
9855;BME280;4966;48.112;9.282;2022-10-24T03:30:28;94619.56;;;13.91;99.94
9855;BME280;4966;48.112;9.282;2022-10-24T03:32:53;94616.03;;;13.90;100.00
9855;BME280;4966;48.112;9.282;2022-10-24T03:35:19;94616.91;;;13.94;100.00
9855;BME280;4966;48.112;9.282;2022-10-24T03:37:44;94624.34;;;13.94;100.00
9855;BME280;4966;48.112;9.282;2022-10-24T03:40:10;94631.22;;;14.07;99.10
9855;BME280;4966;48.112;9.282;2022-10-24T03:42:36;94629.06;;;13.97;99.58
9855;BME280;4966;48.112;9.282;2022-10-24T03:45:02;94615.84;;;13.99;99.10
9855;BME280;4966;48.112;9.282;2022-10-24T03:47:27;94617.34;;;13.96;99.31
9855;BME280;4966;48.112;9.282;2022-10-24T03:49:53;94621.31;;;13.99;98.98
9855;BME280;4966;48.112;9.282;2022-10-24T03:52:18;94623.97;;;13.95;98.71
9855;BME280;4966;48.112;9.282;2022-10-24T03:54:44;94620.78;;;13.93;99.18
9855;BME280;4966;48.112;9.282;2022-10-24T03:57:09;94620.16;;;13.80;99.90
9855;BME280;4966;48.112;9.282;2022-10-24T03:59:35;94622.25;;;13.87;99.87
9855;BME280;4966;48.112;9.282;2022-10-24T04:02:01;94619.22;;;13.92;99.23
9855;BME280;4966;48.112;9.282;2022-10-24T04:04:27;94630.09;;;13.89;99.32
9855;BME280;4966;48.112;9.282;2022-10-24T04:06:52;94637.88;;;13.87;99.43
9855;BME280;4966;48.112;9.282;2022-10-24T04:09:17;94632.59;;;13.78;100.00
9855;BME280;4966;48.112;9.282;2022-10-24T04:11:43;94641.69;;;13.82;100.00
9855;BME280;4966;48.112;9.282;2022-10-24T04:14:08;94641.72;;;13.86;100.00
9855;BME280;4966;48.112;9.282;2022-10-24T04:16:34;94651.25;;;13.92;100.00
9855;BME280;4966;48.112;9.282;2022-10-24T04:19:00;94654.19;;;14.02;100.00
9855;BME280;4966;48.112;9.282;2022-10-24T04:21:25;94655.19;;;13.94;100.00
9855;BME280;4966;48.112;9.282;2022-10-24T04:23:51;94651.81;;;14.01;100.00
9855;BME280;4966;48.112;9.282;2022-10-24T04:26:17;94661.44;;;14.14;100.00
9855;BME280;4966;48.112;9.282;2022-10-24T04:28:43;94641.22;;;14.19;99.85
9855;BME280;4966;48.112;9.282;2022-10-24T04:31:11;94644.03;;;14.22;100.00
9855;BME280;4966;48.112;9.282;2022-10-24T04:33:36;94658.56;;;14.07;100.00
9855;BME280;4966;48.112;9.282;2022-10-24T04:36:02;94660.09;;;14.04;100.00
9855;BME280;4966;48.112;9.282;2022-10-24T04:38:27;94653.09;;;14.07;100.00
9855;BME280;4966;48.112;9.282;2022-10-24T04:40:53;94660.59;;;14.30;100.00
9855;BME280;4966;48.112;9.282;2022-10-24T04:43:19;94661.16;;;14.19;100.00
9855;BME280;4966;48.112;9.282;2022-10-24T04:45:45;94648.06;;;14.09;100.00
9855;BME280;4966;48.112;9.282;2022-10-24T04:48:11;94642.53;;;14.25;100.00
9855;BME280;4966;48.112;9.282;2022-10-24T04:50:39;94637.63;;;14.34;100.00
9855;BME280;4966;48.112;9.282;2022-10-24T04:53:04;94637.19;;;14.32;100.00
9855;BME280;4966;48.112;9.282;2022-10-24T04:55:29;94641.63;;;14.40;100.00
9855;BME280;4966;48.112;9.282;2022-10-24T04:57:55;94634.59;;;14.62;100.00
9855;BME280;4966;48.112;9.282;2022-10-24T05:00:21;94637.72;;;14.61;100.00
9855;BME280;4966;48.112;9.282;2022-10-24T05:02:46;94627.06;;;14.79;100.00
9855;BME280;4966;48.112;9.282;2022-10-24T05:05:11;94621.84;;;14.70;100.00
9855;BME280;4966;48.112;9.282;2022-10-24T05:07:37;94612.13;;;14.53;100.00
9855;BME280;4966;48.112;9.282;2022-10-24T05:10:04;94599.88;;;14.66;100.00
9855;BME280;4966;48.112;9.282;2022-10-24T05:12:29;94592.88;;;14.92;99.84
9855;BME280;4966;48.112;9.282;2022-10-24T05:14:55;94606.63;;;14.73;100.00
9855;BME280;4966;48.112;9.282;2022-10-24T05:17:20;94619.06;;;14.47;100.00
9855;BME280;4966;48.112;9.282;2022-10-24T05:19:46;94629.59;;;14.45;100.00
9855;BME280;4966;48.112;9.282;2022-10-24T05:22:11;94627.19;;;14.43;100.00
9855;BME280;4966;48.112;9.282;2022-10-24T05:24:37;94632.97;;;14.38;100.00
9855;BME280;4966;48.112;9.282;2022-10-24T05:27:02;94619.41;;;14.45;100.00
9855;BME280;4966;48.112;9.282;2022-10-24T05:29:27;94618.13;;;14.59;100.00
9855;BME280;4966;48.112;9.282;2022-10-24T05:31:53;94608.28;;;14.77;100.00
9855;BME280;4966;48.112;9.282;2022-10-24T05:34:18;94598.97;;;14.59;100.00
9855;BME280;4966;48.112;9.282;2022-10-24T05:36:43;94623.66;;;14.62;100.00
9855;BME280;4966;48.112;9.282;2022-10-24T05:39:09;94624.97;;;14.49;100.00
9855;BME280;4966;48.112;9.282;2022-10-24T05:41:34;94603.41;;;14.67;100.00
9855;BME280;4966;48.112;9.282;2022-10-24T05:43:59;94601.03;;;14.65;100.00
9855;BME280;4966;48.112;9.282;2022-10-24T05:46:25;94605.03;;;14.72;100.00
9855;BME280;4966;48.112;9.282;2022-10-24T05:48:51;94580.47;;;14.75;100.00
9855;BME280;4966;48.112;9.282;2022-10-24T05:51:16;94549.53;;;14.75;100.00
9855;BME280;4966;48.112;9.282;2022-10-24T05:53:41;94545.34;;;14.81;100.00
9855;BME280;4966;48.112;9.282;2022-10-24T05:56:07;94560.69;;;14.62;100.00
9855;BME280;4966;48.112;9.282;2022-10-24T05:58:33;94580.41;;;14.72;100.00
9855;BME280;4966;48.112;9.282;2022-10-24T06:00:58;94581.91;;;14.69;100.00
9855;BME280;4966;48.112;9.282;2022-10-24T06:03:23;94580.03;;;14.73;100.00
9855;BME280;4966;48.112;9.282;2022-10-24T06:05:49;94573.34;;;14.71;99.98
9855;BME280;4966;48.112;9.282;2022-10-24T06:08:15;94578.41;;;14.68;99.72
9855;BME280;4966;48.112;9.282;2022-10-24T06:10:45;94589.50;;;14.33;100.00
9855;BME280;4966;48.112;9.282;2022-10-24T06:13:10;94598.31;;;14.23;100.00
9855;BME280;4966;48.112;9.282;2022-10-24T06:15:36;94592.06;;;14.22;100.00
9855;BME280;4966;48.112;9.282;2022-10-24T06:18:01;94604.56;;;14.23;100.00
9855;BME280;4966;48.112;9.282;2022-10-24T06:20:26;94615.53;;;14.46;100.00
9855;BME280;4966;48.112;9.282;2022-10-24T06:22:52;94628.53;;;14.53;100.00
9855;BME280;4966;48.112;9.282;2022-10-24T06:25:17;94637.31;;;14.39;100.00
9855;BME280;4966;48.112;9.282;2022-10-24T06:27:43;94644.31;;;14.37;100.00
9855;BME280;4966;48.112;9.282;2022-10-24T06:30:08;94651.44;;;14.41;100.00
9855;BME280;4966;48.112;9.282;2022-10-24T06:32:34;94654.44;;;14.36;100.00
9855;BME280;4966;48.112;9.282;2022-10-24T06:35:00;94646.81;;;14.26;100.00
9855;BME280;4966;48.112;9.282;2022-10-24T06:37:26;94646.25;;;14.56;100.00
9855;BME280;4966;48.112;9.282;2022-10-24T06:39:52;94635.94;;;14.49;100.00
9855;BME280;4966;48.112;9.282;2022-10-24T06:42:18;94641.44;;;14.53;100.00
9855;BME280;4966;48.112;9.282;2022-10-24T06:44:43;94633.88;;;14.46;100.00
9855;BME280;4966;48.112;9.282;2022-10-24T06:47:09;94626.50;;;14.70;100.00
9855;BME280;4966;48.112;9.282;2022-10-24T06:49:34;94625.38;;;14.71;100.00
9855;BME280;4966;48.112;9.282;2022-10-24T06:51:59;94634.66;;;14.89;100.00
9855;BME280;4966;48.112;9.282;2022-10-24T06:54:25;94634.13;;;14.80;100.00
9855;BME280;4966;48.112;9.282;2022-10-24T06:56:50;94652.03;;;14.74;100.00
9855;BME280;4966;48.112;9.282;2022-10-24T06:59:16;94644.66;;;14.55;100.00
9855;BME280;4966;48.112;9.282;2022-10-24T07:01:43;94643.88;;;14.54;100.00
9855;BME280;4966;48.112;9.282;2022-10-24T07:04:08;94647.16;;;14.63;100.00
9855;BME280;4966;48.112;9.282;2022-10-24T07:06:34;94632.22;;;14.84;100.00
9855;BME280;4966;48.112;9.282;2022-10-24T07:09:01;94636.25;;;14.90;100.00
9855;BME280;4966;48.112;9.282;2022-10-24T07:11:27;94630.91;;;14.97;100.00
9855;BME280;4966;48.112;9.282;2022-10-24T07:13:53;94637.50;;;14.96;100.00
9855;BME280;4966;48.112;9.282;2022-10-24T07:16:19;94635.19;;;14.98;100.00
9855;BME280;4966;48.112;9.282;2022-10-24T07:18:45;94629.63;;;15.18;100.00
9855;BME280;4966;48.112;9.282;2022-10-24T07:21:17;94626.53;;;15.19;100.00
9855;BME280;4966;48.112;9.282;2022-10-24T07:23:43;94648.88;;;15.21;100.00
9855;BME280;4966;48.112;9.282;2022-10-24T07:26:14;94669.78;;;15.06;100.00
9855;BME280;4966;48.112;9.282;2022-10-24T07:28:42;94670.25;;;14.89;100.00
9855;BME280;4966;48.112;9.282;2022-10-24T07:31:15;94675.84;;;14.96;100.00
9855;BME280;4966;48.112;9.282;2022-10-24T07:33:41;94669.66;;;14.99;100.00
9855;BME280;4966;48.112;9.282;2022-10-24T07:36:06;94670.63;;;15.10;100.00
9855;BME280;4966;48.112;9.282;2022-10-24T07:38:32;94676.38;;;15.02;100.00
9855;BME280;4966;48.112;9.282;2022-10-24T07:41:02;94665.84;;;14.81;100.00
9855;BME280;4966;48.112;9.282;2022-10-24T07:43:27;94663.69;;;14.94;100.00
9855;BME280;4966;48.112;9.282;2022-10-24T07:45:52;94662.44;;;14.87;100.00
9855;BME280;4966;48.112;9.282;2022-10-24T07:48:18;94664.97;;;15.00;100.00
9855;BME280;4966;48.112;9.282;2022-10-24T07:50:45;94679.81;;;14.99;100.00
9855;BME280;4966;48.112;9.282;2022-10-24T07:53:11;94678.78;;;15.07;100.00
9855;BME280;4966;48.112;9.282;2022-10-24T07:55:41;94669.16;;;15.17;100.00
9855;BME280;4966;48.112;9.282;2022-10-24T07:58:07;94677.88;;;14.99;100.00
9855;BME280;4966;48.112;9.282;2022-10-24T08:00:33;94676.75;;;15.27;99.71
9855;BME280;4966;48.112;9.282;2022-10-24T08:02:59;94669.84;;;15.10;100.00
9855;BME280;4966;48.112;9.282;2022-10-24T08:05:24;94671.59;;;15.22;99.14
9855;BME280;4966;48.112;9.282;2022-10-24T08:07:49;94655.22;;;15.25;99.34
9855;BME280;4966;48.112;9.282;2022-10-24T08:10:15;94625.31;;;15.43;98.77
9855;BME280;4966;48.112;9.282;2022-10-24T08:12:40;94596.09;;;15.55;98.92
9855;BME280;4966;48.112;9.282;2022-10-24T08:15:06;94586.06;;;15.66;99.02
9855;BME280;4966;48.112;9.282;2022-10-24T08:17:32;94585.28;;;15.08;100.00
9855;BME280;4966;48.112;9.282;2022-10-24T08:19:57;94593.88;;;14.84;100.00
9855;BME280;4966;48.112;9.282;2022-10-24T08:22:22;94577.09;;;15.12;100.00
9855;BME280;4966;48.112;9.282;2022-10-24T08:24:48;94572.09;;;15.44;100.00
9855;BME280;4966;48.112;9.282;2022-10-24T08:27:13;94578.97;;;15.04;100.00
9855;BME280;4966;48.112;9.282;2022-10-24T08:29:38;94614.88;;;15.26;100.00
9855;BME280;4966;48.112;9.282;2022-10-24T08:32:04;94627.47;;;15.04;100.00
9855;BME280;4966;48.112;9.282;2022-10-24T08:34:31;94652.81;;;14.97;100.00
9855;BME280;4966;48.112;9.282;2022-10-24T08:36:57;94648.44;;;15.19;100.00
9855;BME280;4966;48.112;9.282;2022-10-24T08:39:23;94661.06;;;15.01;100.00
9855;BME280;4966;48.112;9.282;2022-10-24T08:41:51;94668.94;;;15.02;100.00
9855;BME280;4966;48.112;9.282;2022-10-24T08:46:58;94679.88;;;15.25;99.65
9855;BME280;4966;48.112;9.282;2022-10-24T08:54:43;94693.81;;;14.94;100.00
9855;BME280;4966;48.112;9.282;2022-10-24T08:57:25;94693.38;;;14.92;100.00
9855;BME280;4966;48.112;9.282;2022-10-24T08:59:53;94697.50;;;15.01;100.00
9855;BME280;4966;48.112;9.282;2022-10-24T09:02:27;94702.53;;;14.76;100.00
9855;BME280;4966;48.112;9.282;2022-10-24T09:04:58;94704.25;;;14.65;100.00
9855;BME280;4966;48.112;9.282;2022-10-24T09:07:25;94703.56;;;14.91;100.00
9855;BME280;4966;48.112;9.282;2022-10-24T09:10:10;94705.38;;;14.83;100.00
9855;BME280;4966;48.112;9.282;2022-10-24T09:12:37;94709.03;;;14.68;100.00
9855;BME280;4966;48.112;9.282;2022-10-24T09:15:13;94700.09;;;14.52;100.00
9855;BME280;4966;48.112;9.282;2022-10-24T09:17:39;94698.88;;;14.92;100.00
9855;BME280;4966;48.112;9.282;2022-10-24T09:20:28;94717.56;;;14.63;100.00
9855;BME280;4966;48.112;9.282;2022-10-24T09:22:57;94729.56;;;14.78;100.00
9855;BME280;4966;48.112;9.282;2022-10-24T09:25:34;94750.44;;;14.47;100.00
9855;BME280;4966;48.112;9.282;2022-10-24T09:28:04;94757.16;;;14.69;100.00
9855;BME280;4966;48.112;9.282;2022-10-24T09:30:30;94762.25;;;14.90;100.00
9855;BME280;4966;48.112;9.282;2022-10-24T09:32:58;94758.72;;;15.13;100.00
9855;BME280;4966;48.112;9.282;2022-10-24T09:35:28;94761.59;;;15.20;100.00
9855;BME280;4966;48.112;9.282;2022-10-24T09:38:07;94769.69;;;14.89;100.00
9855;BME280;4966;48.112;9.282;2022-10-24T09:40:48;94771.06;;;14.80;100.00
9855;BME280;4966;48.112;9.282;2022-10-24T09:46:14;94758.91;;;15.00;100.00
9855;BME280;4966;48.112;9.282;2022-10-24T09:48:53;94766.63;;;14.95;100.00
9855;BME280;4966;48.112;9.282;2022-10-24T09:51:44;94767.47;;;14.99;100.00
9855;BME280;4966;48.112;9.282;2022-10-24T09:56:45;94771.59;;;14.89;100.00
9855;BME280;4966;48.112;9.282;2022-10-24T10:04:35;94763.78;;;15.10;100.00
9855;BME280;4966;48.112;9.282;2022-10-24T10:07:10;94777.34;;;15.03;100.00
9855;BME280;4966;48.112;9.282;2022-10-24T10:09:37;94784.13;;;15.32;100.00
9855;BME280;4966;48.112;9.282;2022-10-24T10:14:49;94792.91;;;15.19;100.00
9855;BME280;4966;48.112;9.282;2022-10-24T10:17:21;94794.84;;;15.18;100.00
9855;BME280;4966;48.112;9.282;2022-10-24T10:19:47;94780.47;;;15.48;100.00
9855;BME280;4966;48.112;9.282;2022-10-24T10:22:42;94788.72;;;15.05;100.00
9855;BME280;4966;48.112;9.282;2022-10-24T10:25:27;94791.34;;;14.98;100.00
9855;BME280;4966;48.112;9.282;2022-10-24T10:27:53;94774.59;;;14.80;100.00
9855;BME280;4966;48.112;9.282;2022-10-24T10:30:20;94775.69;;;14.56;100.00
9855;BME280;4966;48.112;9.282;2022-10-24T10:33:18;94753.03;;;14.79;100.00
9855;BME280;4966;48.112;9.282;2022-10-24T10:36:04;94747.91;;;14.97;100.00
9855;BME280;4966;48.112;9.282;2022-10-24T10:39:03;94763.63;;;14.80;100.00
9855;BME280;4966;48.112;9.282;2022-10-24T10:41:46;94770.31;;;14.83;100.00
9855;BME280;4966;48.112;9.282;2022-10-24T10:47:38;94757.50;;;14.67;100.00
9855;BME280;4966;48.112;9.282;2022-10-24T10:49:43;94772.13;;;14.95;100.00
9855;BME280;4966;48.112;9.282;2022-10-24T10:54:57;94788.16;;;14.96;100.00
9855;BME280;4966;48.112;9.282;2022-10-24T11:03:21;94802.34;;;14.59;100.00
9855;BME280;4966;48.112;9.282;2022-10-24T11:11:40;94811.34;;;14.60;100.00
9855;BME280;4966;48.112;9.282;2022-10-24T11:14:27;94808.66;;;14.44;100.00
9855;BME280;4966;48.112;9.282;2022-10-24T11:16:56;94796.53;;;14.25;100.00
9855;BME280;4966;48.112;9.282;2022-10-24T11:19:35;94799.41;;;14.52;100.00
9855;BME280;4966;48.112;9.282;2022-10-24T11:22:04;94781.81;;;14.14;100.00
9855;BME280;4966;48.112;9.282;2022-10-24T11:24:41;94758.41;;;14.17;100.00
9855;BME280;4966;48.112;9.282;2022-10-24T11:27:15;94750.09;;;14.49;100.00
9855;BME280;4966;48.112;9.282;2022-10-24T11:30:11;94752.09;;;14.32;100.00
9855;BME280;4966;48.112;9.282;2022-10-24T11:32:51;94758.31;;;14.49;100.00
9855;BME280;4966;48.112;9.282;2022-10-24T11:35:38;94745.56;;;14.56;100.00
9855;BME280;4966;48.112;9.282;2022-10-24T11:38:15;94736.53;;;14.36;100.00
9855;BME280;4966;48.112;9.282;2022-10-24T11:40:45;94732.69;;;14.57;100.00
9855;BME280;4966;48.112;9.282;2022-10-24T11:43:19;94713.69;;;14.67;100.00
9855;BME280;4966;48.112;9.282;2022-10-24T11:48:39;94660.94;;;15.17;98.49
9855;BME280;4966;48.112;9.282;2022-10-24T11:51:27;94616.03;;;15.78;97.64
9855;BME280;4966;48.112;9.282;2022-10-24T11:54:02;94597.09;;;16.00;96.35
9855;BME280;4966;48.112;9.282;2022-10-24T11:56:38;94613.69;;;15.53;97.85
9855;BME280;4966;48.112;9.282;2022-10-24T11:59:12;94630.06;;;15.73;97.66
9855;BME280;4966;48.112;9.282;2022-10-24T12:01:49;94669.19;;;15.20;99.02
9855;BME280;4966;48.112;9.282;2022-10-24T12:18:05;94692.53;;;15.10;98.89
9855;BME280;4966;48.112;9.282;2022-10-24T12:20:33;94703.56;;;15.14;98.74
9855;BME280;4966;48.112;9.282;2022-10-24T12:23:00;94710.66;;;14.53;100.00
9855;BME280;4966;48.112;9.282;2022-10-24T12:25:32;94724.25;;;14.65;100.00
9855;BME280;4966;48.112;9.282;2022-10-24T12:28:22;94736.97;;;15.00;100.00
9855;BME280;4966;48.112;9.282;2022-10-24T12:31:10;94727.56;;;14.98;99.52
9855;BME280;4966;48.112;9.282;2022-10-24T12:33:44;94731.25;;;14.63;99.42
9855;BME280;4966;48.112;9.282;2022-10-24T12:36:10;94724.13;;;14.81;99.70
9855;BME280;4966;48.112;9.282;2022-10-24T12:41:02;94716.22;;;14.76;97.95
9855;BME280;4966;48.112;9.282;2022-10-24T12:44:22;94726.22;;;14.88;97.77
9855;BME280;4966;48.112;9.282;2022-10-24T12:46:52;94713.03;;;15.20;96.96
9855;BME280;4966;48.112;9.282;2022-10-24T12:49:25;94712.34;;;15.23;96.41
9855;BME280;4966;48.112;9.282;2022-10-24T12:51:51;94721.78;;;15.26;94.94
9855;BME280;4966;48.112;9.282;2022-10-24T12:54:17;94718.47;;;15.66;93.08
9855;BME280;4966;48.112;9.282;2022-10-24T12:59:32;94722.75;;;15.37;92.27
9855;BME280;4966;48.112;9.282;2022-10-24T13:23:50;94685.41;;;15.56;92.77
9855;BME280;4966;48.112;9.282;2022-10-24T13:26:40;94695.72;;;15.39;94.01
9855;BME280;4966;48.112;9.282;2022-10-24T13:37:40;94689.03;;;14.87;95.45
9855;BME280;4966;48.112;9.282;2022-10-24T13:40:18;94693.03;;;14.51;96.70
9855;BME280;4966;48.112;9.282;2022-10-24T13:42:51;94690.44;;;14.77;95.10
9855;BME280;4966;48.112;9.282;2022-10-24T13:45:31;94683.75;;;14.55;98.24
9855;BME280;4966;48.112;9.282;2022-10-24T13:48:05;94680.81;;;14.87;94.80
9855;BME280;4966;48.112;9.282;2022-10-24T13:50:36;94682.56;;;14.99;93.83
9855;BME280;4966;48.112;9.282;2022-10-24T13:53:15;94683.28;;;15.19;93.33
9855;BME280;4966;48.112;9.282;2022-10-24T13:55:44;94697.13;;;14.80;95.20
9855;BME280;4966;48.112;9.282;2022-10-24T13:58:17;94694.25;;;14.73;94.50
9855;BME280;4966;48.112;9.282;2022-10-24T14:01:04;94691.44;;;15.15;93.40
9855;BME280;4966;48.112;9.282;2022-10-24T14:03:32;94687.13;;;14.91;93.27
9855;BME280;4966;48.112;9.282;2022-10-24T14:06:00;94692.66;;;15.18;92.96
9855;BME280;4966;48.112;9.282;2022-10-24T14:08:33;94698.94;;;15.18;93.08
9855;BME280;4966;48.112;9.282;2022-10-24T14:11:02;94698.56;;;15.20;93.44
9855;BME280;4966;48.112;9.282;2022-10-24T14:13:37;94695.91;;;15.00;94.01
9855;BME280;4966;48.112;9.282;2022-10-24T14:16:13;94700.59;;;15.00;92.77
9855;BME280;4966;48.112;9.282;2022-10-24T14:18:39;94709.03;;;15.14;92.62
9855;BME280;4966;48.112;9.282;2022-10-24T14:21:16;94703.59;;;15.18;92.29
9855;BME280;4966;48.112;9.282;2022-10-24T14:23:55;94713.56;;;14.80;94.26
9855;BME280;4966;48.112;9.282;2022-10-24T14:26:21;94718.00;;;14.88;93.59
9855;BME280;4966;48.112;9.282;2022-10-24T14:28:50;94721.66;;;15.19;92.40
9855;BME280;4966;48.112;9.282;2022-10-24T14:31:35;94728.28;;;15.18;91.88
9855;BME280;4966;48.112;9.282;2022-10-24T14:34:04;94728.38;;;14.79;95.67
9855;BME280;4966;48.112;9.282;2022-10-24T14:36:32;94732.72;;;14.80;93.66
9855;BME280;4966;48.112;9.282;2022-10-24T14:39:00;94731.06;;;14.98;92.72
9855;BME280;4966;48.112;9.282;2022-10-24T14:41:32;94735.03;;;15.01;92.51
9855;BME280;4966;48.112;9.282;2022-10-24T14:43:59;94729.13;;;14.99;93.99
9855;BME280;4966;48.112;9.282;2022-10-24T14:46:39;94728.84;;;15.04;92.31
9855;BME280;4966;48.112;9.282;2022-10-24T14:51:48;94725.84;;;15.13;92.73
9855;BME280;4966;48.112;9.282;2022-10-24T14:54:20;94723.22;;;15.20;92.09
9855;BME280;4966;48.112;9.282;2022-10-24T14:56:46;94727.44;;;15.14;92.47
9855;BME280;4966;48.112;9.282;2022-10-24T14:59:28;94739.41;;;15.05;92.55
9855;BME280;4966;48.112;9.282;2022-10-24T15:04:42;94732.47;;;15.35;91.99
9855;BME280;4966;48.112;9.282;2022-10-24T15:07:26;94738.34;;;15.33;92.93
9855;BME280;4966;48.112;9.282;2022-10-24T15:09:56;94731.19;;;15.28;92.92
9855;BME280;4966;48.112;9.282;2022-10-24T15:12:41;94728.47;;;15.28;93.58
9855;BME280;4966;48.112;9.282;2022-10-24T15:15:24;94733.59;;;15.07;93.97
9855;BME280;4966;48.112;9.282;2022-10-24T15:18:17;94745.25;;;15.50;91.55
9855;BME280;4966;48.112;9.282;2022-10-24T15:20:45;94730.88;;;15.57;91.34
9855;BME280;4966;48.112;9.282;2022-10-24T15:26:06;94728.03;;;14.80;94.95
9855;BME280;4966;48.112;9.282;2022-10-24T15:28:47;94744.47;;;15.03;94.82
9855;BME280;4966;48.112;9.282;2022-10-24T15:31:18;94756.63;;;14.83;95.48